GBSZO EGMA-EGMT
Flight info
| Callsign | GBSZO |
|---|---|
| Flight time | 0h 41m |
| Altitude | 3500 |
| Route | HAVERHILL HALSTED CHELMSFORD BASILDON |
| Aircraft | C152/L-SFG/C |
Departure
| Time | 2026-04-21 18:47 |
|---|---|
| Airport | Fowlmere Airfield (EGMA) |
Arrival
| Time | 2026-04-21 19:29 |
|---|---|
| Airport | Thurrock Airfield (EGMT) |
| Time | Latitude | Longitude | Altitude | Speed | Heading |
|---|---|---|---|---|---|
| 2026-04-21 18:34 | 52.08200 | 0.05770 | 123 ft | 0 kts | 15° |
| 2026-04-21 18:43 | 52.08216 | 0.05737 | 122 ft | 13 kts | 251° |
| 2026-04-21 18:44 | 52.08107 | 0.05731 | 124 ft | 19 kts | 172° |
| 2026-04-21 18:44 | 52.07995 | 0.05762 | 124 ft | 6 kts | 173° |
| 2026-04-21 18:44 | 52.07991 | 0.05763 | 124 ft | 0 kts | 172° |
| 2026-04-21 18:44 | 52.07899 | 0.05798 | 124 ft | 19 kts | 168° |
| 2026-04-21 18:45 | 52.07758 | 0.05857 | 124 ft | 23 kts | 166° |
| 2026-04-21 18:45 | 52.07698 | 0.06032 | 121 ft | 18 kts | 59° |
| 2026-04-21 18:45 | 52.07785 | 0.06219 | 124 ft | 21 kts | 58° |
| 2026-04-21 18:45 | 52.07845 | 0.06421 | 123 ft | 20 kts | 70° |
| 2026-04-21 18:46 | 52.07826 | 0.06455 | 124 ft | 6 kts | 249° |
| 2026-04-21 18:46 | 52.07778 | 0.06267 | 124 ft | 41 kts | 248° |
| 2026-04-21 18:46 | 52.07590 | 0.05584 | 146 ft | 82 kts | 246° |
| 2026-04-21 18:46 | 52.07352 | 0.04742 | 347 ft | 82 kts | 249° |
| 2026-04-21 18:47 | 52.07121 | 0.03908 | 573 ft | 78 kts | 243° |
| 2026-04-21 18:47 | 52.06869 | 0.03144 | 719 ft | 78 kts | 240° |
| 2026-04-21 18:47 | 52.06597 | 0.02380 | 914 ft | 76 kts | 226° |
| 2026-04-21 18:47 | 52.06153 | 0.02294 | 1001 ft | 60 kts | 109° |
| 2026-04-21 18:48 | 52.06098 | 0.02897 | 1225 ft | 50 kts | 84° |
| 2026-04-21 18:48 | 52.06107 | 0.03442 | 1466 ft | 48 kts | 78° |
| 2026-04-21 18:48 | 52.06175 | 0.03965 | 1650 ft | 46 kts | 69° |
| 2026-04-21 18:48 | 52.06287 | 0.04484 | 1809 ft | 51 kts | 67° |
| 2026-04-21 18:49 | 52.06441 | 0.05000 | 2009 ft | 51 kts | 64° |
| 2026-04-21 18:49 | 52.06666 | 0.05475 | 2170 ft | 58 kts | 53° |
| 2026-04-21 18:49 | 52.06860 | 0.05796 | 2258 ft | 61 kts | 51° |
| 2026-04-21 18:49 | 52.07231 | 0.06451 | 2452 ft | 57 kts | 60° |
| 2026-04-21 18:50 | 52.07410 | 0.06997 | 2546 ft | 53 kts | 71° |
| 2026-04-21 18:50 | 52.07511 | 0.07556 | 2640 ft | 50 kts | 71° |
| 2026-04-21 18:50 | 52.07609 | 0.08104 | 2715 ft | 51 kts | 79° |
| 2026-04-21 18:50 | 52.07629 | 0.08688 | 2772 ft | 53 kts | 84° |
| 2026-04-21 18:51 | 52.07605 | 0.09282 | 2839 ft | 53 kts | 91° |
| 2026-04-21 18:51 | 52.07569 | 0.09672 | 2879 ft | 53 kts | 89° |
| 2026-04-21 18:51 | 52.07608 | 0.10469 | 2925 ft | 55 kts | 73° |
| 2026-04-21 18:51 | 52.07749 | 0.11043 | 2973 ft | 58 kts | 65° |
| 2026-04-21 18:52 | 52.07894 | 0.11413 | 3000 ft | 59 kts | 63° |
| 2026-04-21 18:52 | 52.08193 | 0.12221 | 2996 ft | 67 kts | 63° |
| 2026-04-21 18:52 | 52.08384 | 0.12893 | 3048 ft | 65 kts | 76° |
| 2026-04-21 18:52 | 52.08427 | 0.13649 | 3071 ft | 69 kts | 85° |
| 2026-04-21 18:53 | 52.08391 | 0.14178 | 3078 ft | 72 kts | 92° |
| 2026-04-21 18:53 | 52.08350 | 0.14982 | 3092 ft | 71 kts | 86° |
| 2026-04-21 18:53 | 52.08327 | 0.15786 | 3120 ft | 72 kts | 86° |
| 2026-04-21 18:53 | 52.08384 | 0.16581 | 3187 ft | 66 kts | 83° |
| 2026-04-21 18:54 | 52.08461 | 0.17317 | 3191 ft | 68 kts | 78° |
| 2026-04-21 18:54 | 52.08473 | 0.18084 | 3194 ft | 69 kts | 90° |
| 2026-04-21 18:54 | 52.08462 | 0.18857 | 3195 ft | 70 kts | 86° |
| 2026-04-21 18:54 | 52.08432 | 0.19681 | 3146 ft | 73 kts | 90° |
| 2026-04-21 18:55 | 52.08374 | 0.20473 | 3177 ft | 70 kts | 91° |
| 2026-04-21 18:55 | 52.08314 | 0.21266 | 3154 ft | 71 kts | 93° |
| 2026-04-21 18:55 | 52.08237 | 0.22058 | 3162 ft | 71 kts | 95° |
| 2026-04-21 18:55 | 52.08152 | 0.22844 | 3176 ft | 69 kts | 91° |
| 2026-04-21 18:56 | 52.08103 | 0.23616 | 3181 ft | 70 kts | 89° |
| 2026-04-21 18:56 | 52.08097 | 0.24409 | 3176 ft | 70 kts | 83° |
| 2026-04-21 18:56 | 52.08127 | 0.25216 | 3155 ft | 73 kts | 81° |
| 2026-04-21 18:56 | 52.08249 | 0.25987 | 3179 ft | 70 kts | 77° |
| 2026-04-21 18:57 | 52.08383 | 0.26763 | 3151 ft | 73 kts | 77° |
| 2026-04-21 18:57 | 52.08507 | 0.27546 | 3161 ft | 71 kts | 75° |
| 2026-04-21 18:57 | 52.08645 | 0.28331 | 3122 ft | 73 kts | 77° |
| 2026-04-21 18:57 | 52.08764 | 0.29109 | 3165 ft | 69 kts | 71° |
| 2026-04-21 18:58 | 52.08942 | 0.29841 | 3149 ft | 69 kts | 74° |
| 2026-04-21 18:58 | 52.09106 | 0.30583 | 3122 ft | 71 kts | 72° |
| 2026-04-21 18:58 | 52.09240 | 0.31367 | 3112 ft | 72 kts | 76° |
| 2026-04-21 18:58 | 52.09369 | 0.32135 | 3123 ft | 71 kts | 80° |
| 2026-04-21 18:59 | 52.09446 | 0.32932 | 3128 ft | 71 kts | 76° |
| 2026-04-21 18:59 | 52.09548 | 0.33747 | 3070 ft | 73 kts | 79° |
| 2026-04-21 18:59 | 52.09635 | 0.34535 | 3096 ft | 69 kts | 81° |
| 2026-04-21 18:59 | 52.09715 | 0.35316 | 3073 ft | 73 kts | 81° |
| 2026-04-21 19:00 | 52.09727 | 0.35449 | 3070 ft | 73 kts | 79° |
| 2026-04-21 19:00 | 52.09775 | 0.35832 | 3080 ft | 71 kts | 72° |
| 2026-04-21 19:00 | 52.09870 | 0.36576 | 3033 ft | 72 kts | 77° |
| 2026-04-21 19:01 | 52.09906 | 0.37023 | 3007 ft | 73 kts | 85° |
| 2026-04-21 19:02 | 52.09924 | 0.37826 | 3038 ft | 70 kts | 86° |
| 2026-04-21 19:02 | 52.09935 | 0.38632 | 3023 ft | 70 kts | 87° |
| 2026-04-21 19:02 | 52.09937 | 0.39425 | 2997 ft | 71 kts | 89° |
| 2026-04-21 19:02 | 52.09916 | 0.40226 | 2982 ft | 70 kts | 91° |
| 2026-04-21 19:03 | 52.09864 | 0.41025 | 2976 ft | 72 kts | 97° |
| 2026-04-21 19:03 | 52.09466 | 0.41593 | 2998 ft | 81 kts | 140° |
| 2026-04-21 19:03 | 52.08933 | 0.41921 | 3039 ft | 82 kts | 148° |
| 2026-04-21 19:03 | 52.08369 | 0.42163 | 3079 ft | 83 kts | 151° |
| 2026-04-21 19:04 | 52.07797 | 0.42383 | 3104 ft | 84 kts | 151° |
| 2026-04-21 19:04 | 52.07229 | 0.42629 | 3129 ft | 83 kts | 147° |
| 2026-04-21 19:04 | 52.06753 | 0.43015 | 3202 ft | 69 kts | 120° |
| 2026-04-21 19:04 | 52.06596 | 0.43731 | 3181 ft | 68 kts | 90° |
| 2026-04-21 19:05 | 52.06626 | 0.44520 | 3148 ft | 68 kts | 83° |
| 2026-04-21 19:05 | 52.06706 | 0.45292 | 3104 ft | 73 kts | 78° |
| 2026-04-21 19:05 | 52.06833 | 0.46071 | 3122 ft | 71 kts | 79° |
| 2026-04-21 19:05 | 52.06797 | 0.46888 | 3075 ft | 76 kts | 102° |
| 2026-04-21 19:06 | 52.06496 | 0.47624 | 3081 ft | 82 kts | 125° |
| 2026-04-21 19:06 | 52.06042 | 0.48178 | 3083 ft | 85 kts | 135° |
| 2026-04-21 19:06 | 52.05519 | 0.48630 | 3089 ft | 86 kts | 141° |
| 2026-04-21 19:06 | 52.04961 | 0.49016 | 3075 ft | 87 kts | 144° |
| 2026-04-21 19:07 | 52.04389 | 0.49353 | 3078 ft | 86 kts | 144° |
| 2026-04-21 19:07 | 52.03882 | 0.49782 | 3073 ft | 83 kts | 134° |
| 2026-04-21 19:07 | 52.03411 | 0.50328 | 3054 ft | 82 kts | 130° |
| 2026-04-21 19:07 | 52.02955 | 0.50864 | 3058 ft | 81 kts | 131° |
| 2026-04-21 19:08 | 52.02479 | 0.51382 | 3041 ft | 83 kts | 135° |
| 2026-04-21 19:08 | 52.01973 | 0.51843 | 3049 ft | 82 kts | 137° |
| 2026-04-21 19:08 | 52.01492 | 0.52303 | 3061 ft | 81 kts | 134° |
| 2026-04-21 19:08 | 52.01014 | 0.52834 | 3031 ft | 82 kts | 132° |
| 2026-04-21 19:09 | 52.00553 | 0.53355 | 3024 ft | 82 kts | 131° |
| 2026-04-21 19:09 | 52.00093 | 0.53898 | 3009 ft | 81 kts | 131° |
| 2026-04-21 19:09 | 51.99600 | 0.54372 | 2998 ft | 83 kts | 137° |
| 2026-04-21 19:09 | 51.99079 | 0.54799 | 2971 ft | 86 kts | 140° |
| 2026-04-21 19:10 | 51.98547 | 0.55228 | 2976 ft | 83 kts | 137° |
| 2026-04-21 19:10 | 51.98064 | 0.55729 | 2962 ft | 82 kts | 132° |
| 2026-04-21 19:10 | 51.97604 | 0.56261 | 2959 ft | 82 kts | 131° |
| 2026-04-21 19:10 | 51.97151 | 0.56814 | 2963 ft | 81 kts | 130° |
| 2026-04-21 19:11 | 51.96713 | 0.57384 | 2965 ft | 80 kts | 128° |
| 2026-04-21 19:11 | 51.96322 | 0.57990 | 2974 ft | 78 kts | 120° |
| 2026-04-21 19:11 | 51.95962 | 0.58660 | 2966 ft | 78 kts | 120° |
| 2026-04-21 19:11 | 51.95606 | 0.59308 | 2981 ft | 76 kts | 119° |
| 2026-04-21 19:12 | 51.95293 | 0.60004 | 2941 ft | 77 kts | 115° |
| 2026-04-21 19:12 | 51.94962 | 0.60684 | 2958 ft | 76 kts | 119° |
| 2026-04-21 19:12 | 51.94602 | 0.61341 | 2937 ft | 79 kts | 121° |
| 2026-04-21 19:12 | 51.94234 | 0.61979 | 2958 ft | 78 kts | 121° |
| 2026-04-21 19:13 | 51.93860 | 0.62621 | 2945 ft | 79 kts | 123° |
| 2026-04-21 19:13 | 51.93354 | 0.62946 | 3018 ft | 90 kts | 165° |
| 2026-04-21 19:13 | 51.92737 | 0.62576 | 3081 ft | 99 kts | 201° |
| 2026-04-21 19:13 | 51.92146 | 0.61933 | 3093 ft | 105 kts | 202° |
| 2026-04-21 19:14 | 51.91537 | 0.61292 | 3150 ft | 104 kts | 201° |
| 2026-04-21 19:14 | 51.90916 | 0.60674 | 3185 ft | 104 kts | 199° |
| 2026-04-21 19:14 | 51.90285 | 0.60129 | 3244 ft | 102 kts | 195° |
| 2026-04-21 19:14 | 51.89652 | 0.59591 | 3302 ft | 102 kts | 196° |
| 2026-04-21 19:15 | 51.89024 | 0.59054 | 3326 ft | 103 kts | 194° |
| 2026-04-21 19:15 | 51.88378 | 0.58554 | 3355 ft | 102 kts | 193° |
| 2026-04-21 19:15 | 51.87747 | 0.58062 | 3387 ft | 102 kts | 193° |
| 2026-04-21 19:15 | 51.87104 | 0.57551 | 3418 ft | 101 kts | 194° |
| 2026-04-21 19:16 | 51.86457 | 0.57072 | 3430 ft | 103 kts | 189° |
| 2026-04-21 19:16 | 51.85803 | 0.56601 | 3469 ft | 103 kts | 192° |
| 2026-04-21 19:16 | 51.85149 | 0.56159 | 3541 ft | 100 kts | 187° |
| 2026-04-21 19:16 | 51.84491 | 0.55806 | 3570 ft | 100 kts | 184° |
| 2026-04-21 19:17 | 51.83096 | 0.55127 | 3465 ft | 109 kts | 184° |
| 2026-04-21 19:17 | 51.82369 | 0.54816 | 3421 ft | 109 kts | 182° |
| 2026-04-21 19:17 | 51.81643 | 0.54497 | 3412 ft | 109 kts | 185° |
| 2026-04-21 19:18 | 51.80909 | 0.54161 | 3377 ft | 108 kts | 181° |
| 2026-04-21 19:18 | 51.80193 | 0.53891 | 3396 ft | 105 kts | 182° |
| 2026-04-21 19:18 | 51.79483 | 0.53531 | 3359 ft | 109 kts | 186° |
| 2026-04-21 19:18 | 51.78759 | 0.53090 | 3295 ft | 111 kts | 191° |
| 2026-04-21 19:19 | 51.78047 | 0.52622 | 3265 ft | 111 kts | 191° |
| 2026-04-21 19:19 | 51.77309 | 0.52162 | 3055 ft | 120 kts | 184° |
| 2026-04-21 19:19 | 51.76486 | 0.51866 | 2865 ft | 118 kts | 179° |
| 2026-04-21 19:19 | 51.75683 | 0.51604 | 2703 ft | 119 kts | 180° |
| 2026-04-21 19:20 | 51.74871 | 0.51336 | 2570 ft | 118 kts | 180° |
| 2026-04-21 19:20 | 51.74081 | 0.51056 | 2547 ft | 114 kts | 180° |
| 2026-04-21 19:20 | 51.73306 | 0.50787 | 2461 ft | 114 kts | 179° |
| 2026-04-21 19:20 | 51.72538 | 0.50553 | 2425 ft | 110 kts | 178° |
| 2026-04-21 19:21 | 51.71795 | 0.50323 | 2413 ft | 107 kts | 176° |
| 2026-04-21 19:21 | 51.71072 | 0.50096 | 2427 ft | 105 kts | 177° |
| 2026-04-21 19:21 | 51.70358 | 0.49878 | 2423 ft | 105 kts | 177° |
| 2026-04-21 19:21 | 51.69643 | 0.49671 | 2444 ft | 103 kts | 176° |
| 2026-04-21 19:22 | 51.68940 | 0.49472 | 2470 ft | 101 kts | 174° |
| 2026-04-21 19:22 | 51.68246 | 0.49328 | 2480 ft | 100 kts | 172° |
| 2026-04-21 19:22 | 51.67553 | 0.49237 | 2480 ft | 100 kts | 169° |
| 2026-04-21 19:22 | 51.66866 | 0.49184 | 2499 ft | 99 kts | 167° |
| 2026-04-21 19:23 | 51.66178 | 0.49139 | 2518 ft | 99 kts | 168° |
| 2026-04-21 19:23 | 51.65502 | 0.49055 | 2559 ft | 97 kts | 167° |
| 2026-04-21 19:23 | 51.64828 | 0.49092 | 2535 ft | 97 kts | 161° |
| 2026-04-21 19:23 | 51.64099 | 0.49069 | 2424 ft | 110 kts | 171° |
| 2026-04-21 19:24 | 51.63334 | 0.48884 | 2377 ft | 111 kts | 178° |
| 2026-04-21 19:24 | 51.62556 | 0.48576 | 2224 ft | 121 kts | 185° |
| 2026-04-21 19:24 | 51.61749 | 0.48103 | 2100 ft | 122 kts | 191° |
| 2026-04-21 19:24 | 51.60921 | 0.47609 | 1825 ft | 129 kts | 190° |
| 2026-04-21 19:25 | 51.60080 | 0.47154 | 1622 ft | 126 kts | 189° |
| 2026-04-21 19:25 | 51.59264 | 0.46737 | 1517 ft | 119 kts | 187° |
| 2026-04-21 19:25 | 51.58476 | 0.46354 | 1429 ft | 117 kts | 188° |
| 2026-04-21 19:25 | 51.57728 | 0.46012 | 1371 ft | 107 kts | 182° |
| 2026-04-21 19:26 | 51.57014 | 0.45760 | 1330 ft | 104 kts | 181° |
| 2026-04-21 19:26 | 51.56297 | 0.45462 | 1284 ft | 108 kts | 202° |
| 2026-04-21 19:26 | 51.55747 | 0.44657 | 1288 ft | 106 kts | 219° |
| 2026-04-21 19:26 | 51.55253 | 0.43771 | 1246 ft | 101 kts | 226° |
| 2026-04-21 19:27 | 51.54900 | 0.42931 | 1189 ft | 89 kts | 246° |
| 2026-04-21 19:27 | 51.54706 | 0.41997 | 1032 ft | 85 kts | 262° |
| 2026-04-21 19:27 | 51.54607 | 0.41096 | 854 ft | 81 kts | 261° |
| 2026-04-21 19:27 | 51.54510 | 0.40219 | 691 ft | 79 kts | 262° |
| 2026-04-21 19:28 | 51.54338 | 0.39334 | 528 ft | 86 kts | 259° |
| 2026-04-21 19:28 | 51.54156 | 0.38407 | 370 ft | 88 kts | 252° |
| 2026-04-21 19:28 | 51.53929 | 0.37506 | 122 ft | 85 kts | 253° |
| 2026-04-21 19:28 | 51.53756 | 0.36722 | 24 ft | 62 kts | 243° |
| 2026-04-21 19:29 | 51.53683 | 0.36392 | 25 ft | 14 kts | 262° |
| 2026-04-21 19:29 | 51.53650 | 0.36248 | 27 ft | 7 kts | 255° |
| 2026-04-21 19:29 | 51.53618 | 0.36253 | 26 ft | 7 kts | 102° |
| 2026-04-21 19:29 | 51.53620 | 0.36286 | 26 ft | 0 kts | 71° |
| 2026-04-21 19:30 | 51.53621 | 0.36287 | 26 ft | 2 kts | 70° |
| 2026-04-21 19:30 | 51.53629 | 0.36354 | 27 ft | 8 kts | 92° |
| 2026-04-21 19:30 | 51.53630 | 0.36427 | 26 ft | 1 kts | 76° |
| 2026-04-21 19:30 | 51.53637 | 0.36525 | 26 ft | 9 kts | 150° |
| 2026-04-21 19:31 | 51.53613 | 0.36500 | 26 ft | 3 kts | 260° |
| 2026-04-21 19:31 | 51.53613 | 0.36497 | 26 ft | 0 kts | 258° |